createdAt,value
2023-02-12T00:01:38.410Z,8.95
2023-02-12T00:04:05.223Z,8.85
2023-02-12T00:06:31.953Z,9.50
2023-02-12T00:08:59.215Z,9.15
2023-02-12T00:11:28.541Z,8.75
2023-02-12T00:13:55.808Z,8.60
2023-02-12T00:16:24.447Z,9.30
2023-02-12T00:18:54.018Z,9.50
2023-02-12T00:21:21.360Z,9.75
2023-02-12T00:23:48.701Z,8.70
2023-02-12T00:26:19.630Z,9.55
2023-02-12T00:28:46.587Z,10.52
2023-02-12T00:31:15.609Z,10.20
2023-02-12T00:33:42.556Z,9.60
2023-02-12T00:36:14.739Z,9.98
2023-02-12T00:38:41.516Z,10.65
2023-02-12T00:41:08.275Z,10.43
2023-02-12T00:43:35.064Z,9.13
2023-02-12T00:46:01.969Z,9.73
2023-02-12T00:48:29.365Z,11.45
2023-02-12T00:50:56.062Z,10.60
2023-02-12T00:53:24.140Z,11.50
2023-02-12T00:55:50.876Z,11.27
2023-02-12T00:58:19.023Z,12.43
2023-02-12T01:00:45.923Z,10.88
2023-02-12T01:03:12.837Z,11.10
2023-02-12T01:05:39.586Z,10.68
2023-02-12T01:08:06.434Z,12.73
2023-02-12T01:10:34.510Z,11.85
2023-02-12T01:13:01.261Z,11.50
2023-02-12T01:15:27.986Z,11.18
2023-02-12T01:17:55.926Z,12.23
2023-02-12T01:20:24.765Z,10.85
2023-02-12T01:22:52.017Z,11.45
2023-02-12T01:25:20.684Z,11.13
2023-02-12T01:27:48.979Z,10.95
2023-02-12T01:30:16.360Z,11.57
2023-02-12T01:32:43.442Z,11.63
2023-02-12T01:35:10.333Z,11.48
2023-02-12T01:37:37.752Z,11.68
2023-02-12T01:40:05.396Z,11.77
2023-02-12T01:42:32.124Z,12.32
2023-02-12T01:45:44.293Z,11.95
2023-02-12T01:48:11.436Z,12.25
2023-02-12T01:50:38.540Z,12.90
2023-02-12T01:53:05.360Z,12.32
2023-02-12T01:55:32.232Z,13.50
2023-02-12T01:57:59.072Z,12.65
2023-02-12T02:00:25.846Z,11.65
2023-02-12T02:02:57.094Z,12.15
2023-02-12T02:05:31.182Z,12.18
2023-02-12T02:10:24.443Z,11.40
2023-02-12T02:12:51.202Z,11.52
2023-02-12T02:15:18.063Z,12.65
2023-02-12T02:17:52.549Z,13.52
2023-02-12T02:21:04.626Z,13.00
2023-02-12T02:23:46.536Z,11.57
2023-02-12T02:26:43.712Z,12.18
2023-02-12T02:29:41.595Z,13.30
2023-02-12T02:32:16.726Z,13.35
2023-02-12T02:34:50.761Z,12.30
2023-02-12T02:39:51.965Z,12.07
2023-02-12T02:42:24.945Z,12.23
2023-02-12T02:44:53.961Z,12.70
2023-02-12T02:47:27.772Z,12.75
2023-02-12T02:49:59.240Z,14.02
2023-02-12T02:52:39.575Z,13.18
2023-02-12T02:55:09.296Z,11.73
2023-02-12T02:57:41.510Z,13.70
2023-02-12T03:00:14.266Z,12.68
2023-02-12T03:02:47.615Z,13.55
2023-02-12T03:05:19.456Z,13.27
2023-02-12T03:07:50.594Z,12.80
2023-02-12T03:10:19.647Z,12.32
2023-02-12T03:12:52.786Z,13.40
2023-02-12T03:15:25.088Z,14.37
2023-02-12T03:17:53.476Z,13.98
2023-02-12T03:20:24.597Z,13.30
2023-02-12T03:22:55.474Z,13.70
2023-02-12T03:25:26.583Z,14.18
2023-02-12T03:28:06.493Z,14.40
2023-02-12T03:30:40.177Z,12.68
2023-02-12T03:33:21.723Z,12.68
2023-02-12T03:35:56.093Z,13.07
2023-02-12T03:38:31.466Z,13.18
2023-02-12T03:41:04.335Z,12.57
2023-02-12T03:43:39.113Z,12.93
2023-02-12T03:46:15.403Z,12.98
2023-02-12T03:48:51.108Z,13.15
2023-02-12T03:51:23.301Z,12.40
2023-02-12T03:53:50.189Z,13.23
2023-02-12T03:56:22.287Z,13.48
2023-02-12T03:58:48.990Z,13.93
2023-02-12T04:01:15.879Z,13.65
2023-02-12T04:03:44.389Z,15.57
2023-02-12T04:06:20.682Z,14.60
2023-02-12T04:08:47.437Z,13.02
2023-02-12T04:11:25.336Z,12.73
2023-02-12T04:14:08.112Z,12.38
2023-02-12T04:16:41.454Z,14.45
2023-02-12T04:19:13.595Z,13.30
2023-02-12T04:21:53.364Z,12.15
2023-02-12T04:24:28.369Z,13.55
2023-02-12T04:26:59.896Z,13.40
2023-02-12T04:29:33.049Z,12.38
2023-02-12T04:32:06.670Z,14.00
2023-02-12T04:34:39.452Z,12.38
2023-02-12T04:37:12.514Z,13.77
2023-02-12T04:39:40.912Z,13.20
2023-02-12T04:42:07.917Z,14.18
2023-02-12T04:44:38.574Z,13.55
2023-02-12T04:47:05.303Z,14.40
2023-02-12T04:49:32.043Z,13.30
2023-02-12T04:52:00.157Z,13.77
2023-02-12T04:54:26.978Z,13.88
2023-02-12T04:56:53.695Z,12.35
2023-02-12T04:59:20.448Z,13.50
2023-02-12T05:01:47.250Z,14.07
2023-02-12T05:04:15.356Z,13.00
2023-02-12T05:06:43.661Z,13.68
2023-02-12T05:09:14.812Z,12.57
2023-02-12T05:11:41.786Z,14.23
2023-02-12T05:14:08.636Z,13.40
2023-02-12T05:16:35.411Z,12.13
2023-02-12T05:19:02.137Z,12.95
2023-02-12T05:21:28.837Z,14.60
2023-02-12T05:23:55.562Z,12.93
2023-02-12T05:26:24.690Z,13.15
2023-02-12T05:28:51.404Z,12.50
2023-02-12T05:31:21.643Z,12.23
2023-02-12T05:33:50.084Z,12.35
2023-02-12T05:36:18.726Z,13.35
2023-02-12T05:38:45.680Z,11.82
2023-02-12T05:41:14.762Z,11.65
2023-02-12T05:43:43.321Z,13.95
2023-02-12T05:46:11.037Z,12.98
2023-02-12T05:48:38.446Z,14.45
2023-02-12T05:51:06.936Z,14.88
2023-02-12T05:53:33.837Z,12.82
2023-02-12T05:56:12.882Z,12.98
2023-02-12T05:58:40.956Z,12.88
2023-02-12T06:01:14.852Z,14.32
2023-02-12T06:03:42.076Z,12.50
2023-02-12T06:06:09.342Z,13.68
2023-02-12T06:08:36.474Z,14.40
2023-02-12T06:11:04.221Z,14.55
2023-02-12T06:13:31.878Z,15.82
2023-02-12T06:15:59.549Z,17.05
2023-02-12T06:18:28.419Z,15.85
2023-02-12T06:20:55.150Z,15.35
2023-02-12T06:23:22.274Z,14.45
2023-02-12T06:25:49.254Z,15.32
2023-02-12T06:28:16.265Z,14.02
2023-02-12T06:30:43.312Z,14.13
2023-02-12T06:33:10.271Z,14.00
2023-02-12T06:35:38.868Z,12.80
2023-02-12T06:38:05.887Z,13.60
2023-02-12T06:40:32.959Z,15.10
2023-02-12T06:42:59.985Z,15.23
2023-02-12T06:45:27.061Z,15.98
2023-02-12T06:47:53.781Z,16.83
2023-02-12T06:50:20.877Z,17.48
2023-02-12T06:52:48.981Z,17.77
2023-02-12T06:55:16.096Z,18.05
2023-02-12T06:57:43.036Z,17.80
2023-02-12T07:00:11.003Z,17.83
2023-02-12T07:02:39.135Z,16.35
2023-02-12T07:05:06.453Z,16.90
2023-02-12T07:07:33.416Z,16.58
2023-02-12T07:10:01.467Z,15.80
2023-02-12T07:12:28.185Z,16.02
2023-02-12T07:14:54.901Z,17.83
2023-02-12T07:17:21.741Z,15.82
2023-02-12T07:19:48.490Z,15.43
2023-02-12T07:22:15.359Z,13.75
2023-02-12T07:24:42.080Z,15.57
2023-02-12T07:27:10.135Z,16.00
2023-02-12T07:29:36.855Z,15.50
2023-02-12T07:32:04.038Z,15.27
2023-02-12T07:34:30.922Z,15.68
2023-02-12T07:36:57.721Z,16.95
2023-02-12T07:39:24.538Z,15.82
2023-02-12T07:41:51.334Z,17.00
2023-02-12T07:44:19.504Z,17.73
2023-02-12T07:46:48.854Z,15.43
2023-02-12T07:49:17.502Z,16.25
2023-02-12T07:51:44.350Z,16.42
2023-02-12T07:54:11.257Z,15.93
2023-02-12T07:56:40.160Z,23.75
2023-02-12T07:59:10.434Z,20.05
2023-02-12T08:01:40.489Z,15.82
2023-02-12T08:04:09.328Z,15.30
2023-02-12T08:06:38.506Z,17.77
2023-02-12T08:09:06.885Z,14.00
2023-02-12T08:11:34.185Z,15.48
2023-02-12T08:14:01.243Z,15.70
2023-02-12T08:16:28.836Z,14.52
2023-02-12T08:19:07.203Z,14.15
2023-02-12T08:21:41.717Z,14.95
2023-02-12T08:24:09.792Z,14.15
2023-02-12T08:26:38.566Z,13.25
2023-02-12T08:29:07.266Z,13.95
2023-02-12T08:31:35.197Z,13.75
2023-02-12T08:34:04.155Z,14.75
2023-02-12T08:36:34.999Z,13.98
2023-02-12T08:39:01.977Z,14.13
2023-02-12T08:41:29.882Z,14.85
2023-02-12T08:43:58.074Z,14.57
2023-02-12T08:46:26.845Z,14.50
2023-02-12T08:48:54.931Z,15.25
2023-02-12T08:51:24.806Z,12.68
2023-02-12T08:53:53.352Z,13.93
2023-02-12T08:56:20.291Z,12.68
2023-02-12T08:58:47.513Z,12.30
2023-02-12T09:01:16.426Z,13.52
2023-02-12T09:03:43.659Z,12.98
2023-02-12T09:06:10.831Z,12.43
2023-02-12T09:08:39.338Z,13.75
2023-02-12T09:11:06.978Z,13.23
2023-02-12T09:13:33.981Z,12.43
2023-02-12T09:16:01.437Z,12.25
2023-02-12T09:18:29.254Z,11.98
2023-02-12T09:21:00.277Z,11.02
2023-02-12T09:23:26.998Z,11.55
2023-02-12T09:25:55.400Z,12.40
2023-02-12T09:28:22.755Z,13.63
2023-02-12T09:30:49.763Z,13.10
2023-02-12T09:33:16.533Z,13.00
2023-02-12T09:35:43.267Z,12.40
2023-02-12T09:38:10.065Z,11.63
2023-02-12T09:40:44.335Z,12.27
2023-02-12T09:43:17.807Z,11.50
2023-02-12T09:45:51.578Z,9.80
2023-02-12T09:48:33.638Z,10.20
2023-02-12T09:51:05.314Z,11.30
2023-02-12T09:53:35.043Z,11.10
2023-02-12T09:56:01.972Z,11.07
2023-02-12T09:58:35.387Z,11.00
2023-02-12T10:01:09.997Z,11.32
2023-02-12T10:03:36.845Z,12.85
2023-02-12T10:06:07.462Z,9.75
2023-02-12T10:09:07.006Z,10.15
2023-02-12T10:11:49.324Z,9.02
2023-02-12T10:14:48.618Z,7.75
2023-02-12T10:17:22.480Z,9.07
2023-02-12T10:20:11.861Z,9.20
2023-02-12T10:22:56.481Z,10.60
2023-02-12T10:25:30.295Z,7.13
2023-02-12T10:28:00.504Z,5.85
2023-02-12T10:30:37.588Z,6.32
2023-02-12T10:33:09.685Z,6.95
2023-02-12T10:35:36.793Z,5.78
2023-02-12T10:38:07.599Z,6.15
2023-02-12T10:40:36.094Z,7.80
2023-02-12T10:43:02.991Z,13.43
2023-02-12T10:45:33.659Z,18.65
2023-02-12T10:48:08.021Z,13.93
2023-02-12T10:50:49.897Z,15.65
2023-02-12T10:53:21.386Z,9.50
2023-02-12T10:55:48.455Z,7.07
2023-02-12T10:58:21.685Z,8.40
2023-02-12T11:00:57.004Z,13.77
2023-02-12T11:03:29.118Z,10.80
2023-02-12T11:05:56.506Z,9.80
2023-02-12T11:08:31.467Z,7.57
2023-02-12T11:11:05.095Z,9.77
2023-02-12T11:13:32.384Z,24.38
2023-02-12T11:16:00.780Z,10.48
2023-02-12T11:18:29.963Z,26.10
2023-02-12T11:20:58.518Z,11.07
2023-02-12T11:23:27.754Z,8.63
2023-02-12T11:25:57.953Z,8.88
2023-02-12T11:28:25.259Z,9.32
2023-02-12T11:30:54.998Z,8.15
2023-02-12T11:33:29.430Z,8.00
2023-02-12T11:35:59.070Z,8.50
2023-02-12T11:38:29.801Z,8.60
2023-02-12T11:41:03.652Z,8.00
2023-02-12T11:43:33.396Z,6.80
2023-02-12T11:46:00.933Z,7.18
2023-02-12T11:48:32.887Z,7.53
2023-02-12T11:51:02.456Z,8.38
2023-02-12T11:53:31.939Z,7.15
2023-02-12T11:56:01.662Z,6.07
2023-02-12T11:58:29.256Z,6.57
2023-02-12T12:01:05.971Z,7.18
2023-02-12T12:03:44.058Z,6.57
2023-02-12T12:06:22.672Z,7.07
2023-02-12T12:08:54.247Z,33.10
2023-02-12T12:11:25.232Z,8.18
2023-02-12T12:14:00.467Z,6.38
2023-02-12T12:16:31.807Z,7.32
2023-02-12T12:19:04.442Z,9.18
2023-02-12T12:21:39.915Z,8.40
2023-02-12T12:24:13.516Z,7.07
2023-02-12T12:26:46.343Z,8.32
2023-02-12T12:29:20.193Z,9.50
2023-02-12T12:31:50.405Z,7.85
2023-02-12T12:34:22.134Z,8.55
2023-02-12T12:37:09.760Z,10.60
2023-02-12T12:39:44.933Z,9.25
2023-02-12T12:42:36.892Z,6.95
2023-02-12T12:45:24.938Z,7.28
2023-02-12T12:48:06.369Z,6.53
2023-02-12T12:50:51.797Z,8.07
2023-02-12T12:53:34.825Z,7.10
2023-02-12T12:56:19.053Z,7.50
2023-02-12T12:59:07.701Z,7.07
2023-02-12T13:02:08.724Z,6.53
2023-02-12T13:05:03.742Z,6.38
2023-02-12T13:07:47.457Z,6.88
2023-02-12T13:10:33.137Z,8.55
2023-02-12T13:13:21.894Z,7.05
2023-02-12T13:15:56.305Z,10.52
2023-02-12T13:18:35.622Z,8.75
2023-02-12T13:21:12.849Z,8.18
2023-02-12T13:23:48.676Z,11.00
2023-02-12T13:26:21.549Z,8.75
2023-02-12T13:28:53.770Z,7.20
2023-02-12T13:31:33.389Z,9.30
2023-02-12T13:34:03.617Z,9.38
2023-02-12T13:36:30.435Z,9.07
2023-02-12T13:39:04.693Z,11.95
2023-02-12T13:41:32.423Z,8.43
2023-02-12T13:44:10.716Z,8.70
2023-02-12T13:46:50.548Z,8.95
2023-02-12T13:49:32.313Z,8.43
2023-02-12T13:52:02.883Z,9.57
2023-02-12T13:54:43.980Z,9.35
2023-02-12T13:57:15.120Z,8.45
2023-02-12T13:59:47.057Z,8.27
2023-02-12T14:02:42.351Z,7.13
2023-02-12T14:05:23.761Z,8.65
2023-02-12T14:07:52.755Z,9.32
2023-02-12T14:10:29.037Z,7.57
2023-02-12T14:13:09.087Z,7.93
2023-02-12T14:15:37.768Z,6.47
2023-02-12T14:18:07.383Z,5.88
2023-02-12T14:20:35.588Z,6.47
2023-02-12T14:23:19.284Z,7.65
2023-02-12T14:25:55.986Z,6.75
2023-02-12T14:28:27.260Z,6.72
2023-02-12T14:31:29.583Z,6.57
2023-02-12T14:34:29.764Z,6.78
2023-02-12T14:37:11.942Z,8.80
2023-02-12T14:39:38.705Z,8.25
2023-02-12T14:42:54.265Z,6.55
2023-02-12T14:45:29.019Z,7.10
2023-02-12T14:47:55.953Z,6.88
2023-02-12T14:50:28.756Z,6.30
2023-02-12T14:53:04.145Z,6.50
2023-02-12T14:55:33.783Z,6.07
2023-02-12T14:58:05.822Z,5.72
2023-02-12T15:00:36.918Z,6.20
2023-02-12T15:03:18.310Z,5.65
2023-02-12T15:05:51.246Z,6.53
2023-02-12T15:08:26.933Z,9.10
2023-02-12T15:10:58.016Z,9.40
2023-02-12T15:13:29.448Z,7.97
2023-02-12T15:16:02.187Z,9.25
2023-02-12T15:18:35.549Z,9.57
2023-02-12T15:21:13.141Z,9.55
2023-02-12T15:23:41.225Z,8.60
2023-02-12T15:26:14.333Z,11.00
2023-02-12T15:28:43.289Z,10.10
2023-02-12T15:31:10.763Z,8.93
2023-02-12T15:33:41.658Z,8.70
2023-02-12T15:36:10.550Z,11.73
2023-02-12T15:38:40.191Z,8.70
2023-02-12T15:41:07.374Z,12.77
2023-02-12T15:43:39.480Z,12.40
2023-02-12T15:46:17.128Z,11.43
2023-02-12T15:48:44.791Z,9.57
2023-02-12T15:51:17.892Z,8.20
2023-02-12T15:53:44.973Z,9.05
2023-02-12T15:56:15.152Z,8.93
2023-02-12T15:58:48.020Z,9.98
2023-02-12T16:01:18.614Z,8.18
2023-02-12T16:03:49.948Z,9.02
2023-02-12T16:06:18.602Z,7.85
2023-02-12T16:08:48.203Z,7.03
2023-02-12T16:11:19.599Z,7.43
2023-02-12T16:13:49.616Z,9.32
2023-02-12T16:16:21.691Z,8.38
2023-02-12T16:19:08.392Z,11.88
2023-02-12T16:21:38.073Z,12.93
2023-02-12T16:24:18.154Z,9.60
2023-02-12T16:26:47.450Z,8.50
2023-02-12T16:29:16.689Z,9.85
2023-02-12T16:31:55.362Z,7.53
2023-02-12T16:34:34.829Z,8.35
2023-02-12T16:37:02.133Z,10.90
2023-02-12T16:40:17.368Z,9.80
2023-02-12T16:42:56.936Z,10.32
2023-02-12T16:45:38.826Z,8.55
2023-02-12T16:48:17.659Z,8.27
2023-02-12T16:50:50.605Z,7.80
2023-02-12T16:53:38.391Z,8.20
2023-02-12T16:56:05.882Z,6.40
2023-02-12T16:58:32.663Z,7.35
2023-02-12T17:01:03.297Z,6.63
2023-02-12T17:03:31.597Z,8.73
2023-02-12T17:05:58.812Z,10.05
2023-02-12T17:08:25.754Z,9.98
2023-02-12T17:10:52.882Z,9.07
2023-02-12T17:13:19.810Z,10.60
2023-02-12T17:15:51.322Z,13.95
2023-02-12T17:18:18.336Z,11.60
2023-02-12T17:20:51.338Z,8.07
2023-02-12T17:23:18.246Z,8.25
2023-02-12T17:25:45.028Z,8.90
2023-02-12T17:28:11.752Z,9.15
2023-02-12T17:30:38.676Z,9.40
2023-02-12T17:33:05.393Z,9.55
2023-02-12T17:35:32.137Z,10.98
2023-02-12T17:38:00.257Z,9.35
2023-02-12T17:40:26.966Z,10.10
2023-02-12T17:42:54.047Z,8.15
2023-02-12T17:45:20.770Z,7.47
2023-02-12T17:47:47.550Z,7.88
2023-02-12T17:50:15.742Z,8.85
2023-02-12T17:52:42.704Z,9.23
2023-02-12T17:55:11.105Z,18.25
2023-02-12T17:57:38.237Z,22.85
2023-02-12T18:00:06.295Z,13.65
2023-02-12T18:02:33.067Z,18.48
2023-02-12T18:04:59.814Z,8.82
2023-02-12T18:07:26.539Z,8.38
2023-02-12T18:09:53.319Z,9.93
2023-02-12T18:12:21.396Z,9.40
2023-02-12T18:14:48.159Z,12.50
2023-02-12T18:17:14.972Z,11.98
2023-02-12T18:19:41.728Z,12.48
2023-02-12T18:22:08.430Z,12.07
2023-02-12T18:24:35.190Z,10.75
2023-02-12T18:27:01.983Z,12.55
2023-02-12T18:29:30.068Z,11.30
2023-02-12T18:31:57.237Z,9.88
2023-02-12T18:34:24.720Z,12.88
2023-02-12T18:36:51.510Z,12.65
2023-02-12T18:39:18.254Z,11.18
2023-02-12T18:41:44.966Z,9.85
2023-02-12T18:44:11.869Z,10.00
2023-02-12T18:46:40.170Z,8.95
2023-02-12T18:49:07.482Z,9.40
2023-02-12T18:51:34.587Z,11.05
2023-02-12T18:54:06.345Z,10.70
2023-02-12T18:56:36.647Z,11.18
2023-02-12T18:59:05.092Z,10.52
2023-02-12T19:01:33.610Z,10.25
2023-02-12T19:04:03.234Z,11.90
2023-02-12T19:06:31.214Z,13.38
2023-02-12T19:09:00.207Z,12.20
2023-02-12T19:11:28.012Z,12.80
2023-02-12T19:13:55.026Z,17.90
2023-02-12T19:16:23.500Z,44.05
2023-02-12T19:18:51.030Z,20.23
2023-02-12T19:21:19.129Z,26.42
2023-02-12T19:23:45.839Z,25.48
2023-02-12T19:26:15.439Z,17.73
2023-02-12T19:28:42.696Z,19.02
2023-02-12T19:31:10.472Z,15.07
2023-02-12T19:33:37.368Z,12.80
2023-02-12T19:36:04.522Z,13.50
2023-02-12T19:38:33.574Z,12.02
2023-02-12T19:41:03.348Z,10.65
2023-02-12T19:43:30.336Z,11.63
2023-02-12T19:46:01.649Z,10.43
2023-02-12T19:48:28.490Z,11.05
2023-02-12T19:50:55.605Z,11.07
2023-02-12T19:53:22.590Z,11.93
2023-02-12T19:55:50.739Z,12.27
2023-02-12T19:58:17.470Z,11.93
2023-02-12T20:00:44.599Z,13.00
2023-02-12T20:03:11.514Z,14.02
2023-02-12T20:05:38.241Z,13.18
2023-02-12T20:08:05.154Z,12.98
2023-02-12T20:10:31.948Z,13.32
2023-02-12T20:13:00.005Z,12.18
2023-02-12T20:15:26.788Z,14.52
2023-02-12T20:17:53.506Z,15.88
2023-02-12T20:20:20.474Z,14.25
2023-02-12T20:22:47.215Z,13.50
2023-02-12T20:25:13.943Z,15.00
2023-02-12T20:27:40.687Z,14.95
2023-02-12T20:30:09.990Z,14.00
2023-02-12T20:32:36.750Z,13.20
2023-02-12T20:35:03.546Z,13.00
2023-02-12T20:37:30.305Z,12.52
2023-02-12T20:39:57.037Z,11.32
2023-02-12T20:42:23.808Z,12.30
2023-02-12T20:44:50.564Z,11.43
2023-02-12T20:47:18.638Z,10.55
2023-02-12T20:49:45.336Z,11.20
2023-02-12T20:52:12.213Z,11.00
2023-02-12T20:54:38.947Z,10.40
2023-02-12T20:57:05.632Z,11.30
2023-02-12T20:59:32.507Z,10.85
2023-02-12T21:01:59.296Z,11.05
2023-02-12T21:04:29.289Z,8.65
2023-02-12T21:06:58.729Z,11.02
2023-02-12T21:09:25.587Z,10.57
2023-02-12T21:11:52.391Z,9.05
2023-02-12T21:14:22.305Z,8.80
2023-02-12T21:16:50.362Z,8.95
2023-02-12T21:19:18.029Z,12.80
2023-02-12T21:21:46.260Z,14.55
2023-02-12T21:24:14.574Z,10.02
2023-02-12T21:26:41.448Z,11.88
2023-02-12T21:29:08.176Z,10.10
2023-02-12T21:31:37.176Z,9.55
2023-02-12T21:34:05.349Z,10.18
2023-02-12T21:36:36.228Z,11.65
2023-02-12T21:39:06.340Z,11.48
2023-02-12T21:41:34.677Z,10.50
2023-02-12T21:44:03.927Z,11.63
2023-02-12T21:46:30.746Z,9.73
2023-02-12T21:48:58.709Z,9.80
2023-02-12T21:51:27.043Z,10.63
2023-02-12T21:53:55.694Z,9.68
2023-02-12T21:56:24.232Z,10.07
2023-02-12T21:58:51.846Z,10.05
2023-02-12T22:01:20.932Z,7.72
2023-02-12T22:03:47.690Z,8.18
2023-02-12T22:06:16.337Z,7.53
2023-02-12T22:08:43.074Z,9.20
2023-02-12T22:11:10.913Z,8.60
2023-02-12T22:13:39.372Z,8.15
2023-02-12T22:16:10.307Z,8.25
2023-02-12T22:18:37.421Z,8.95
2023-02-12T22:21:05.761Z,8.75
2023-02-12T22:23:33.283Z,8.02
2023-02-12T22:26:05.217Z,8.23
2023-02-12T22:28:32.289Z,8.38
2023-02-12T22:31:04.649Z,8.85
2023-02-12T22:33:31.405Z,7.90
2023-02-12T22:36:04.181Z,9.07
2023-02-12T22:38:33.492Z,7.28
2023-02-12T22:41:00.285Z,8.98
2023-02-12T22:43:29.088Z,6.97
2023-02-12T22:45:55.902Z,8.27
2023-02-12T22:48:24.515Z,7.50
2023-02-12T22:50:51.865Z,7.35
2023-02-12T22:53:18.654Z,7.78
2023-02-12T22:55:45.381Z,8.13
2023-02-12T22:58:12.264Z,7.78
2023-02-12T23:00:40.309Z,8.00
2023-02-12T23:03:07.272Z,7.50
2023-02-12T23:05:37.117Z,7.75
2023-02-12T23:08:04.124Z,6.65
2023-02-12T23:10:31.026Z,8.48
2023-02-12T23:12:57.801Z,7.22
2023-02-12T23:15:24.520Z,8.32
2023-02-12T23:17:51.660Z,9.23
2023-02-12T23:20:18.518Z,7.32
2023-02-12T23:22:46.608Z,7.10
2023-02-12T23:25:13.330Z,6.88
2023-02-12T23:27:40.075Z,6.72
2023-02-12T23:30:08.186Z,6.63
2023-02-12T23:32:34.899Z,5.82
2023-02-12T23:35:01.651Z,6.40
2023-02-12T23:37:28.404Z,6.57
2023-02-12T23:39:56.485Z,6.15
2023-02-12T23:42:23.224Z,7.05
2023-02-12T23:44:50.073Z,5.63
2023-02-12T23:47:16.804Z,6.43
2023-02-12T23:49:43.518Z,6.55
2023-02-12T23:52:10.238Z,7.07
2023-02-12T23:54:37.013Z,6.10
2023-02-12T23:57:05.159Z,5.93
2023-02-12T23:59:31.922Z,6.38
